Detall de PIREP

Printer-friendly versionPDF version

[2010/11/04 08:20:00]
Flight IATA:CT2111
Pilot Number:041
Company ICAO:CAT
Aircraft Type:F28/A
PAX:75
Departing Airport: LEST
Destination Airport: LEVC
Alternate Airport:LEAL
Online: VATSIM
Route:FORNO A33 ZMR A33 DISKO A33 INDEG A33 MAGIN A33 HORTA A33 CJN A33 PRADO A33 CENTA
Flight Level:FL220
No Slew and time accel
No pause
Crash detect
Detect pilot in Cockpit between each 30 and 45 minutes
08:20 Zero fuel Weight: 56437 Lbs, Fuel Weight: 11428 Lbs
08:20 VATSIM:LEST 040800Z 00000KT 9999 0600NW R17/0150N BCFG FEW001 10/10 Q1030 NOSIG
08:20 VATSIM:LEVC 040800Z 27003KT CAVOK 14/10 Q1029 NOSIG
08:20 VOICE CATALONIAN
08:23 Parking Brakes off
08:36 Take-off
08:36 Take off Weight: 67236 Lbs
08:36 Wind: 262º @ 002 Knots Heading: 166º
08:36 POS N42º 53´ 33´´ W008º 24´ 50´´
08:36 Gear Up: 175 Knots
08:36 Flaps:2 at 175 Knots
08:37 Flaps:1 at 220 Knots
08:37 Flaps:0 at 224 Knots
08:49 TOC
08:49 Fuel Weight: 9142 Lb
08:51 Wind:332º@015 Knots Heading: 123º Ground Speed: 405 Knots Altitude 22506 ft
09:06 Wind:344º@012 Knots Heading: 114º Ground Speed: 409 Knots Altitude 22513 ft
09:21 Wind:008º@021 Knots Heading: 114º Ground Speed: 407 Knots Altitude 22493 ft
09:25 TOD
09:25 Fuel Weight: 6199 Lb
09:36 Wind:112º@009 Knots Heading: 119º Ground Speed: 248 Knots Altitude 5918 ft
09:44 Flaps:1 at 206 Knots
09:48 Flaps:2 at 175 Knots
09:51 Wind:061º@004 Knots Heading: 101º Ground Speed: 184 Knots Altitude 3769 ft
09:58 Gear Down: 180 Knots
09:59 Flaps:3 at 145 Knots
09:59 Flaps:4 at 133 Knots
10:00 Flaps:5 at 130 Knots
10:03 TouchDown:Rate -146 ft/min Speed: 108 Knots
10:04 Flaps:0 at 44 Knots
10:04 VATSIM:LEVC 040930Z 33003KT 290V010 CAVOK 19/10 Q1029 NOSIG
10:04 Land
10:04 Wind:078º@001 Knots
10:04 Heading: 296º
10:04 Flight Duration: 01:28
10:04 Landing Weight: 60679 Lbs
10:04 POS N39º 29´ 13´´ W000º 28´ 33´´
10:07 Parking brakes on
10:07 Block to Block Duration: 01:44
10:07 Final Fuel: 4111 Lbls
10:07 Spent Fuel: 7317 Lbls
10:07 Flight Length: 457 NM
10:07 TOD Land Length: 145 NM

Exportar CSV

Powered by Drupal - Modified by Danger4k